Time;durP1;ratioP1;P1;durP2;ratioP2;P2;SDS_P1;SDS_P2;PMS_P1;PMS_P2;Temp;Humidity;BMP_temperature;BMP_pressure;BME280_temperature;BME280_humidity;BME280_pressure;Samples;Min_cycle;Max_cycle;Signal;HPM_P1;HPM_P2
2022/09/03 00:00:06;;;;;;;3.40;1.27;;;16.50;63.80;;;15.41;79.64;95770.66;4999716;28;20046;-69
2022/09/03 00:02:46;;;;;;;1.52;1.00;;;16.40;63.90;;;15.42;80.29;95756.38;5015027;28;20041;-70
2022/09/03 00:05:34;;;;;;;2.05;1.23;;;16.50;64.10;;;15.42;80.18;95764.34;4981800;28;20388;-70
2022/09/03 00:08:29;;;;;;;2.38;1.30;;;16.50;64.00;;;15.42;80.22;95766.97;4992653;28;20031;-70
2022/09/03 00:11:24;;;;;;;2.70;1.35;;;16.50;64.10;;;15.41;80.50;95760.06;4963870;28;20034;-70
2022/09/03 00:14:08;;;;;;;2.22;1.60;;;16.50;64.20;;;15.40;80.31;95753.16;4982708;28;20037;-70
2022/09/03 00:16:53;;;;;;;2.83;1.23;;;16.50;64.10;;;15.39;80.36;95759.47;4985683;28;20113;-70
2022/09/03 00:19:27;;;;;;;2.10;1.30;;;16.40;63.80;;;15.36;79.24;95762.56;5006477;28;20069;-71
2022/09/03 00:22:18;;;;;;;3.42;1.35;;;16.40;63.70;;;15.33;79.34;95759.34;4987468;28;20065;-70
2022/09/03 00:24:44;;;;;;;3.22;1.10;;;16.40;64.00;;;15.33;79.43;95763.84;5001390;28;20034;-71
2022/09/03 00:27:28;;;;;;;2.85;1.10;;;16.40;64.50;;;15.36;79.57;95773.16;4987398;28;20042;-69
2022/09/03 00:29:58;;;;;;;2.53;1.20;;;16.40;63.90;;;15.32;78.53;95762.22;4976362;28;20035;-70
2022/09/03 00:32:38;;;;;;;3.70;1.10;;;16.40;63.70;;;15.30;79.84;95770.41;4978524;28;20042;-70
2022/09/03 00:35:05;;;;;;;2.63;1.20;;;16.30;64.00;;;15.30;78.70;95770.41;4971950;28;20421;-69
2022/09/03 00:37:31;;;;;;;2.25;1.20;;;16.40;64.00;;;15.28;78.26;95761.88;4972486;28;20133;-70
2022/09/03 00:39:57;;;;;;;4.85;1.25;;;16.30;63.50;;;15.27;78.16;95765.56;4986680;28;20053;-70
2022/09/03 00:42:45;;;;;;;2.78;1.10;;;16.30;63.40;;;15.27;78.73;95760.25;4968289;28;20454;-70
2022/09/03 00:45:37;;;;;;;5.07;1.20;;;16.30;63.30;;;15.26;79.95;95757.84;4985055;28;20571;-70
2022/09/03 00:48:22;;;;;;;2.22;1.17;;;16.30;63.60;;;15.23;79.76;95759.09;5004867;28;20465;-70
2022/09/03 00:51:02;;;;;;;2.28;1.02;;;16.30;64.00;;;15.21;79.93;95749.75;5007031;28;20057;-71
2022/09/03 00:54:09;;;;;;;2.22;1.42;;;16.20;64.40;;;15.23;81.70;95753.78;5002550;28;20060;-70
2022/09/03 00:57:07;;;;;;;3.63;1.30;;;16.20;64.70;;;15.17;80.38;95754.72;5002919;28;20184;-70
2022/09/03 00:59:57;;;;;;;2.55;1.30;;;16.20;64.60;;;15.17;82.73;95751.25;5014197;28;20033;-70
2022/09/03 01:02:48;;;;;;;2.38;1.45;;;16.20;65.20;;;15.14;81.81;95749.03;4994490;28;20044;-68
2022/09/03 01:05:27;;;;;;;;;;;16.20;65.30;;;15.08;81.79;95744.63;5002288;28;20026;-70
2022/09/03 01:08:31;;;;;;;2.50;1.10;;;16.10;65.20;;;15.07;83.93;95743.03;4999049;28;19988;-70
2022/09/03 01:11:26;;;;;;;1.73;1.27;;;16.10;65.90;;;15.06;83.56;95752.81;5002548;28;20062;-69
2022/09/03 01:14:11;;;;;;;2.83;1.50;;;16.10;66.30;;;15.04;83.87;95760.19;4969896;28;20040;-70
2022/09/03 01:16:46;;;;;;;1.92;1.30;;;16.10;65.90;;;15.00;82.98;95759.81;4989378;28;20033;-69
2022/09/03 01:19:56;;;;;;;4.65;1.10;;;16.10;66.00;;;15.02;83.94;95762.25;5000688;28;20052;-69
2022/09/03 01:22:44;;;;;;;2.97;1.35;;;16.10;66.00;;;14.98;83.56;95766.38;5001648;28;20121;-69
2022/09/03 01:25:38;;;;;;;2.50;1.38;;;16.00;65.70;;;14.95;83.29;95761.53;5002703;28;20049;-70
2022/09/03 01:28:42;;;;;;;2.72;1.60;;;16.00;65.70;;;14.88;83.09;95744.91;5005512;28;20038;-70
2022/09/03 01:31:45;;;;;;;2.88;1.35;;;15.90;65.80;;;14.86;85.09;95746.97;4987212;28;20506;-69
2022/09/03 01:34:59;;;;;;;1.98;1.40;;;15.90;66.20;;;14.84;84.77;95759.63;4983954;28;20124;-69
2022/09/03 01:37:38;;;;;;;2.00;1.23;;;15.90;66.30;;;14.77;83.21;95748.31;5010155;28;20105;-70
2022/09/03 01:40:29;;;;;;;2.00;1.27;;;15.80;66.20;;;14.73;84.07;95752.47;5001584;28;20042;-70
2022/09/03 01:43:22;;;;;;;6.75;1.60;;;15.70;66.10;;;14.67;84.66;95754.94;5007103;28;20057;-70
2022/09/03 01:46:07;;;;;;;3.47;1.45;;;15.70;66.40;;;14.61;84.14;95769.06;4996552;28;20062;-70
2022/09/03 01:48:49;;;;;;;1.58;1.20;;;15.60;66.80;;;14.57;84.56;95757.31;4981480;28;20037;-69
2022/09/03 01:51:20;;;;;;;2.78;1.30;;;15.60;67.00;;;14.52;84.27;95756.38;5017826;28;20057;-70
2022/09/03 01:54:15;;;;;;;2.28;1.38;;;15.60;66.90;;;14.49;85.28;95760.28;5018962;28;20053;-69
2022/09/03 01:57:14;;;;;;;4.78;1.65;;;15.50;67.30;;;14.48;85.91;95769.22;4989979;28;20073;-69
2022/09/03 02:00:09;;;;;;;2.60;1.42;;;15.50;67.60;;;14.48;87.27;95760.47;4995834;28;20034;-69
2022/09/03 02:02:35;;;;;;;2.70;1.50;;;15.50;67.70;;;14.45;85.66;95766.19;4977058;28;20096;-69
2022/09/03 02:05:09;;;;;;;2.50;1.27;;;15.50;67.90;;;14.43;86.57;95769.06;4989591;28;20068;-69
2022/09/03 02:07:57;;;;;;;2.97;1.40;;;15.40;67.90;;;14.41;87.04;95760.53;4974349;28;20066;-69
2022/09/03 02:10:43;;;;;;;1.80;1.27;;;15.40;68.10;;;14.40;86.77;95753.63;4993469;28;20478;-69
2022/09/03 02:13:14;;;;;;;2.95;1.42;;;15.40;68.00;;;14.37;86.48;95754.06;5007174;28;20046;-69
2022/09/03 02:15:44;;;;;;;3.80;1.77;;;15.40;68.10;;;14.35;85.90;95756.13;5000543;28;20030;-68
2022/09/03 02:18:16;;;;;;;2.58;1.70;;;15.40;67.90;;;14.33;86.21;95747.59;4984984;28;20050;-68
2022/09/03 02:20:41;;;;;;;2.25;1.50;;;15.40;67.90;;;14.30;86.03;95753.34;4990937;28;20041;-69
2022/09/03 02:23:07;;;;;;;2.40;1.42;;;15.40;68.00;;;14.26;86.88;95752.16;4988152;28;20126;-68
2022/09/03 02:25:37;;;;;;;3.83;1.73;;;15.30;68.20;;;14.18;87.05;95740.00;5002835;28;20129;-69
2022/09/03 02:28:04;;;;;;;1.85;1.35;;;15.20;68.40;;;14.15;87.09;95751.03;4992170;28;20473;-69
2022/09/03 02:30:30;;;;;;;3.13;1.45;;;15.10;68.60;;;14.14;86.25;95760.00;5001019;28;20042;-69
2022/09/03 02:32:56;;;;;;;3.25;1.60;;;15.10;68.80;;;14.08;87.26;95753.75;5000448;28;20065;-69
2022/09/03 02:35:22;;;;;;;5.07;1.65;;;15.10;69.00;;;14.03;87.01;95745.69;4967083;28;20181;-69
2022/09/03 02:37:47;;;;;;;3.33;1.35;;;15.00;69.30;;;13.98;88.45;95742.84;4967346;28;20034;-69
2022/09/03 02:40:13;;;;;;;2.45;1.48;;;15.00;69.60;;;13.96;88.25;95755.50;5001060;28;20539;-70
2022/09/03 02:42:39;;;;;;;3.35;1.63;;;15.00;69.50;;;13.93;88.87;95748.00;5004880;28;20030;-70
2022/09/03 02:45:26;;;;;;;2.45;1.58;;;14.90;69.60;;;13.88;89.66;95747.03;4988325;28;20146;-69
2022/09/03 02:47:58;;;;;;;2.03;1.52;;;14.90;69.80;;;13.84;89.32;95757.25;4989057;28;20030;-70
2022/09/03 02:50:24;;;;;;;2.25;1.80;;;14.90;69.90;;;13.82;89.06;95761.13;4989433;28;20042;-70
2022/09/03 02:52:50;;;;;;;2.55;1.40;;;14.80;70.00;;;13.76;88.90;95753.03;4956990;28;20038;-70
2022/09/03 02:55:16;;;;;;;3.33;1.52;;;14.80;70.10;;;13.72;89.90;95756.31;4971937;28;20093;-69
2022/09/03 02:57:42;;;;;;;2.97;1.58;;;14.80;70.30;;;13.69;88.92;95751.47;4942918;28;20092;-70
2022/09/03 03:00:08;;;;;;;2.65;1.40;;;14.70;70.30;;;13.66;90.54;95747.44;4992257;28;20671;-70
2022/09/03 03:02:34;;;;;;;1.98;1.52;;;14.60;70.50;;;13.63;89.81;95750.53;4991660;28;20168;-70
2022/09/03 03:05:00;;;;;;;2.65;1.55;;;14.60;70.60;;;13.61;90.46;95742.00;4999473;28;20040;-70
2022/09/03 03:07:30;;;;;;;4.82;1.67;;;14.60;70.50;;;13.60;91.48;95755.44;5000968;28;20045;-70
2022/09/03 03:09:56;;;;;;;3.78;1.38;;;14.60;70.60;;;13.55;89.57;95753.41;4968706;28;20034;-70
2022/09/03 03:12:22;;;;;;;3.58;1.50;;;14.60;70.50;;;13.54;91.37;95753.63;5001983;28;20049;-70
2022/09/03 03:14:47;;;;;;;4.82;1.95;;;14.60;70.60;;;13.51;90.81;95749.59;5018646;28;20061;-70
2022/09/03 03:17:13;;;;;;;3.50;1.65;;;14.60;70.40;;;13.45;90.56;95751.25;4981599;28;20470;-70
2022/09/03 03:19:39;;;;;;;3.20;1.80;;;14.50;70.60;;;13.42;90.40;95751.69;4998127;28;20042;-70
2022/09/03 03:22:05;;;;;;;6.18;1.70;;;14.50;70.70;;;13.41;90.76;95746.63;4999964;28;20580;-70
2022/09/03 03:24:31;;;;;;;3.90;1.75;;;14.50;70.90;;;13.41;90.64;95750.06;5000135;28;20141;-70
2022/09/03 03:26:57;;;;;;;3.75;1.70;;;14.50;70.90;;;13.40;91.27;95750.28;5001071;28;20474;-69
2022/09/03 03:29:23;;;;;;;2.85;1.83;;;14.50;71.10;;;13.39;91.22;95756.59;4990753;28;20038;-69
2022/09/03 03:31:50;;;;;;;2.22;1.67;;;14.50;71.30;;;13.35;91.52;95750.94;4987675;28;20417;-70
2022/09/03 03:34:16;;;;;;;2.72;1.58;;;14.50;71.30;;;13.35;91.31;95750.94;5001470;28;20061;-70
2022/09/03 03:36:41;;;;;;;2.08;1.55;;;14.40;71.30;;;13.33;92.44;95752.16;4989266;28;20442;-70
2022/09/03 03:39:07;;;;;;;3.63;1.75;;;14.40;71.00;;;13.30;91.90;95758.69;4981920;28;20726;-70
2022/09/03 03:41:34;;;;;;;3.17;1.73;;;14.40;71.20;;;13.28;92.09;95750.16;4983108;28;20099;-70
2022/09/03 03:44:03;;;;;;;2.65;2.00;;;14.40;71.00;;;13.26;92.40;95751.41;4983157;28;20050;-70
2022/09/03 03:46:31;;;;;;;3.03;1.70;;;14.30;71.10;;;13.26;92.54;95754.84;5015785;28;20382;-70
2022/09/03 03:48:58;;;;;;;2.85;1.70;;;14.30;71.10;;;13.24;92.46;95754.25;4983251;28;20170;-70
2022/09/03 03:51:24;;;;;;;2.90;2.10;;;14.40;71.10;;;13.23;92.62;95751.84;4981582;28;20056;-70
2022/09/03 03:53:54;;;;;;;1.88;1.60;;;14.30;71.10;;;13.21;93.00;95749.41;4997765;28;20054;-70
2022/09/03 03:56:20;;;;;;;2.30;1.65;;;14.30;71.20;;;13.19;91.64;95746.19;4984910;28;20045;-70
2022/09/03 03:58:47;;;;;;;3.45;1.80;;;14.30;71.10;;;13.17;92.26;95742.91;4989370;28;20045;-71
2022/09/03 04:01:15;;;;;;;3.47;1.90;;;14.30;71.40;;;13.16;92.98;95744.75;4989609;28;20065;-68
2022/09/03 04:03:41;;;;;;;2.92;1.90;;;14.30;71.10;;;13.18;92.12;95744.56;4969056;28;20510;-69
2022/09/03 04:06:11;;;;;;;2.67;1.77;;;14.30;71.00;;;13.18;92.45;95747.19;4989264;28;20042;-69
2022/09/03 04:08:39;;;;;;;4.27;1.80;;;14.30;71.10;;;13.17;92.96;95741.09;4973275;28;20517;-69
2022/09/03 04:11:07;;;;;;;2.42;1.60;;;14.30;71.30;;;13.17;92.98;95745.56;4973678;28;20295;-68
2022/09/03 04:13:34;;;;;;;2.53;1.70;;;14.30;71.30;;;13.16;93.38;95751.84;4972961;28;20131;-69
2022/09/03 04:16:17;;;;;;;2.53;1.75;;;14.30;71.40;;;13.15;94.57;95750.25;4969713;28;20422;-69
2022/09/03 04:18:43;;;;;;;4.65;1.85;;;14.30;71.40;;;13.14;93.07;95753.91;5002733;28;20678;-69
2022/09/03 04:21:11;;;;;;;3.35;2.00;;;14.30;71.50;;;13.16;94.32;95762.41;5006319;28;20034;-68
2022/09/03 04:23:39;;;;;;;3.05;1.65;;;14.30;71.60;;;13.16;93.24;95755.31;5006610;28;20088;-69
2022/09/03 04:26:05;;;;;;;3.83;1.90;;;14.30;71.50;;;13.16;93.15;95751.84;4976891;28;20048;-69
2022/09/03 04:28:31;;;;;;;3.20;1.80;;;14.30;71.40;;;13.15;93.27;95750.25;4999608;28;20113;-69
2022/09/03 04:31:05;;;;;;;2.75;1.85;;;14.30;71.60;;;13.17;95.09;95758.75;4999574;28;20073;-69
2022/09/03 04:33:31;;;;;;;2.65;2.03;;;14.40;71.70;;;13.16;94.52;95763.22;4988195;28;20036;-68
2022/09/03 04:36:09;;;;;;;5.00;1.90;;;14.40;71.90;;;13.18;95.43;95765.69;5001677;28;20035;-69
2022/09/03 04:38:37;;;;;;;2.78;1.98;;;14.40;72.00;;;13.18;95.04;95776.25;4980444;28;20466;-69
2022/09/03 04:41:04;;;;;;;3.47;2.00;;;14.40;72.20;;;13.19;94.60;95777.88;4983822;28;20292;-69
2022/09/03 04:43:30;;;;;;;2.30;1.80;;;14.40;72.30;;;13.20;94.89;95779.47;4973349;28;20141;-69
2022/09/03 04:46:02;;;;;;;2.95;2.00;;;14.40;72.50;;;13.22;96.93;95782.72;4996085;28;20132;-68
2022/09/03 04:48:28;;;;;;;8.02;2.17;;;14.50;72.60;;;13.23;96.32;95784.34;5005897;28;20030;-69
2022/09/03 04:50:54;;;;;;;3.83;1.73;;;14.50;72.30;;;13.25;95.82;95790.22;5023193;28;20064;-69
2022/09/03 04:53:21;;;;;;;5.95;1.80;;;14.50;72.20;;;13.29;96.85;95794.03;4991229;28;20034;-69
2022/09/03 04:55:47;;;;;;;5.68;2.13;;;14.60;71.80;;;13.33;95.45;95789.94;5008927;28;20042;-70
2022/09/03 04:58:13;;;;;;;4.55;2.10;;;14.60;71.90;;;13.35;96.63;95787.94;5007533;28;20104;-69
2022/09/03 05:00:38;;;;;;;4.78;2.20;;;14.70;72.00;;;13.38;96.60;95787.50;4989551;28;20062;-71
2022/09/03 05:03:04;;;;;;;3.33;2.00;;;14.70;72.20;;;13.42;97.06;95786.03;5003756;28;20045;-69
2022/09/03 05:05:32;;;;;;;2.90;1.98;;;14.80;71.80;;;13.48;95.78;95787.81;4984860;28;20121;-71
2022/09/03 05:08:00;;;;;;;4.82;1.95;;;14.80;71.60;;;13.55;95.94;95797.53;4995290;28;20128;-71
2022/09/03 05:10:26;;;;;;;5.53;2.10;;;14.90;71.70;;;13.61;97.04;95808.06;4983884;28;20041;-69
2022/09/03 05:13:05;;;;;;;5.50;1.90;;;15.00;71.90;;;13.68;98.09;95805.38;5004084;28;20038;-70
2022/09/03 05:15:31;;;;;;;2.42;1.90;;;15.00;71.70;;;13.70;97.27;95803.31;4970985;28;20108;-70
2022/09/03 05:18:01;;;;;;;3.10;1.98;;;15.00;71.80;;;13.73;95.73;95810.81;4964932;28;20039;-71
2022/09/03 05:20:28;;;;;;;2.70;2.00;;;15.00;70.80;;;13.76;95.43;95811.19;4985460;28;20058;-70
2022/09/03 05:22:55;;;;;;;2.22;1.70;;;15.10;70.50;;;13.83;96.05;95832.31;4980298;28;20800;-70
2022/09/03 05:25:21;;;;;;;3.35;2.00;;;15.10;70.40;;;13.84;95.80;95828.63;4986287;28;20123;-70
2022/09/03 05:27:47;;;;;;;3.28;2.00;;;15.10;70.70;;;13.87;95.19;95825.56;5001299;28;20057;-70
2022/09/03 05:30:13;;;;;;;3.67;2.10;;;15.10;70.30;;;13.89;94.77;95823.50;4974059;28;20377;-70
2022/09/03 05:32:39;;;;;;;5.88;1.90;;;15.20;70.70;;;13.93;94.86;95832.63;5001562;28;20042;-70
2022/09/03 05:35:06;;;;;;;4.85;1.70;;;15.30;69.90;;;13.97;94.80;95833.78;4977664;28;20034;-68
2022/09/03 05:37:32;;;;;;;5.32;2.38;;;15.30;69.70;;;14.02;94.89;95841.88;4986054;28;20046;-71
2022/09/03 05:39:58;;;;;;;4.63;2.10;;;15.40;69.70;;;14.03;94.13;95832.94;5014972;28;20754;-66
2022/09/03 05:42:24;;;;;;;2.47;1.80;;;15.50;69.90;;;14.07;94.49;95841.25;4999122;28;20453;-63
2022/09/03 05:44:50;;;;;;;2.83;1.73;;;15.50;70.20;;;14.10;93.76;95836.34;4967568;28;20056;-69
2022/09/03 05:47:16;;;;;;;2.80;1.98;;;15.40;69.70;;;14.13;94.99;95836.94;5003846;28;20029;-64
2022/09/03 05:49:41;;;;;;;5.13;1.70;;;15.60;70.10;;;14.17;94.56;95838.09;5003300;28;20426;-65
2022/09/03 05:52:08;;;;;;;4.45;1.88;;;15.60;70.20;;;14.23;95.26;95837.22;5021849;28;20490;-63
2022/09/03 05:54:34;;;;;;;6.03;1.92;;;15.70;70.20;;;14.29;95.27;95836.38;4988941;28;20026;-67
2022/09/03 05:57:00;;;;;;;5.53;1.92;;;15.80;70.20;;;14.36;95.38;95831.81;4990699;28;20099;-65
2022/09/03 05:59:26;;;;;;;2.45;1.63;;;16.00;69.70;;;14.44;94.78;95818.31;4994852;28;20053;-64
2022/09/03 06:01:52;;;;;;;6.10;2.25;;;16.00;69.30;;;14.52;96.34;95815.41;5008804;28;20437;-65
2022/09/03 06:04:17;;;;;;;3.30;2.10;;;16.10;69.40;;;14.60;94.63;95812.47;5006427;28;20034;-70
2022/09/03 06:06:44;;;;;;;4.00;2.22;;;16.10;69.40;;;14.65;94.18;95820.53;4974912;28;20045;-71
2022/09/03 06:09:16;;;;;;;2.95;1.80;;;16.20;68.70;;;14.73;93.82;95822.09;4979599;28;20488;-74
2022/09/03 06:11:42;;;;;;;4.18;1.65;;;16.20;68.60;;;14.79;94.51;95826.50;4984360;28;20513;-72
2022/09/03 06:14:11;;;;;;;4.25;1.88;;;16.30;68.80;;;14.85;94.71;95830.09;5003864;28;20043;-72
2022/09/03 06:16:45;;;;;;;3.72;1.88;;;16.30;68.50;;;14.86;93.75;95826.41;4970111;28;20133;-72
2022/09/03 06:19:12;;;;;;;4.18;1.90;;;16.30;68.40;;;14.88;91.92;95822.50;4994624;28;20038;-71
2022/09/03 06:21:41;;;;;;;8.07;2.35;;;16.30;67.50;;;14.91;92.12;95823.91;4972220;28;20041;-72
2022/09/03 06:24:11;;;;;;;3.75;2.35;;;16.20;67.00;;;14.94;90.99;95820.84;5007119;28;20112;-72
2022/09/03 06:26:38;;;;;;;4.90;2.50;;;16.30;67.10;;;14.97;89.75;95826.50;4985350;28;20041;-72
2022/09/03 06:29:03;;;;;;;4.93;2.40;;;16.40;66.10;;;15.02;89.26;95833.75;5023339;28;20042;-71
2022/09/03 06:31:29;;;;;;;5.07;2.50;;;16.40;66.00;;;15.06;88.91;95836.78;4982152;28;20457;-71
2022/09/03 06:33:55;;;;;;;5.75;2.50;;;16.50;66.20;;;15.06;87.88;95837.56;4974332;28;20031;-71
2022/09/03 06:36:22;;;;;;;3.38;2.15;;;16.50;65.10;;;15.04;87.89;95839.63;4980039;28;20399;-72
2022/09/03 06:38:51;;;;;;;3.75;2.00;;;16.40;65.90;;;15.05;88.01;95841.25;5004564;28;20030;-72
2022/09/03 06:41:19;;;;;;;4.10;2.17;;;16.50;65.80;;;15.08;88.40;95835.50;4997680;28;20109;-71
2022/09/03 06:43:46;;;;;;;5.40;2.67;;;16.50;66.00;;;15.11;89.06;95843.00;4989146;28;20096;-72
2022/09/03 06:46:14;;;;;;;3.70;2.25;;;16.60;66.20;;;15.16;87.91;95843.16;5018746;28;20049;-72
2022/09/03 06:48:40;;;;;;;7.22;2.10;;;16.70;66.00;;;15.21;89.01;95856.56;4988935;28;20083;-72
2022/09/03 06:51:09;;;;;;;5.63;2.00;;;16.70;66.00;;;15.26;89.12;95842.63;4974083;28;20034;-65
2022/09/03 06:53:40;;;;;;;5.15;3.15;;;16.70;65.80;;;15.31;88.33;95842.75;4987123;28;20041;-64
2022/09/03 06:56:08;;;;;;;6.13;2.25;;;16.80;65.80;;;15.37;88.12;95857.75;4989316;28;20142;-64
2022/09/03 06:58:42;;;;;;;4.50;2.30;;;16.80;65.90;;;15.40;88.51;95864.47;5021743;28;20034;-63
2022/09/03 07:01:11;;;;;;;3.47;2.22;;;16.80;65.50;;;15.44;88.76;95857.69;4989902;28;20038;-64
2022/09/03 07:03:38;;;;;;;5.35;2.65;;;16.80;66.10;;;15.45;87.92;95864.59;5000097;28;20131;-64
2022/09/03 07:06:06;;;;;;;5.13;2.50;;;16.80;65.70;;;15.47;88.21;95857.22;4999491;28;20073;-64
2022/09/03 07:08:33;;;;;;;3.38;2.00;;;16.90;65.80;;;15.51;88.08;95861.03;5000230;28;20105;-66
2022/09/03 07:11:04;;;;;;;5.75;2.13;;;17.00;66.40;;;15.47;88.24;95855.38;5005809;28;20037;-65
2022/09/03 07:13:32;;;;;;;5.22;2.60;;;16.90;66.40;;;15.50;88.73;95854.94;4982552;28;20399;-64
2022/09/03 07:16:04;;;;;;;7.68;2.95;;;17.00;66.70;;;15.49;88.51;95850.66;5006606;28;20064;-64
2022/09/03 07:18:30;;;;;;;3.25;2.28;;;16.90;66.20;;;15.51;89.32;95853.09;4987802;28;20050;-65
2022/09/03 07:21:08;;;;;;;5.13;2.50;;;17.00;66.50;;;15.52;91.00;95852.84;4954377;28;20084;-65
2022/09/03 07:23:35;;;;;;;7.53;3.00;;;16.90;67.50;;;15.53;90.68;95851.00;5004009;28;20120;-65
2022/09/03 07:26:04;;;;;;;4.30;2.55;;;17.00;67.70;;;15.54;91.33;95850.78;4988190;28;20044;-64
2022/09/03 07:28:33;;;;;;;3.65;2.45;;;17.00;68.00;;;15.55;91.13;95856.91;4985769;28;20049;-70
2022/09/03 07:31:24;;;;;;;5.20;2.45;;;16.90;68.40;;;15.52;91.70;95860.00;4988772;28;20114;-70
2022/09/03 07:33:57;;;;;;;3.78;2.63;;;16.80;68.30;;;15.51;92.87;95861.03;4969434;28;20791;-64
2022/09/03 07:36:26;;;;;;;4.25;2.50;;;16.90;68.90;;;15.47;92.10;95871.28;4992129;28;20125;-68
2022/09/03 07:38:55;;;;;;;5.60;2.60;;;16.80;68.70;;;15.48;93.15;95877.41;4985044;28;20066;-70
2022/09/03 07:41:22;;;;;;;3.53;2.70;;;16.70;69.30;;;15.47;92.75;95881.88;4981178;28;20526;-70
2022/09/03 07:43:47;;;;;;;5.43;2.70;;;16.80;69.80;;;15.48;93.04;95874.75;4988087;28;20106;-70
2022/09/03 07:46:24;;;;;;;3.90;2.47;;;16.80;68.60;;;15.49;92.41;95873.72;4987502;28;20118;-70
2022/09/03 07:48:54;;;;;;;9.10;3.03;;;16.80;68.60;;;15.50;93.09;95881.44;4988357;28;20498;-70
2022/09/03 07:51:21;;;;;;;6.30;2.40;;;16.90;69.60;;;15.53;94.00;95875.69;4987468;28;20038;-71
2022/09/03 07:53:47;;;;;;;5.55;3.03;;;17.00;69.30;;;15.54;92.62;95876.50;4984526;28;20032;-70
2022/09/03 07:56:13;;;;;;;4.85;2.70;;;17.00;68.30;;;15.54;92.68;95879.13;4988493;28;20121;-70
2022/09/03 07:58:40;;;;;;;3.88;2.60;;;17.00;68.30;;;15.61;93.75;95877.22;4985620;28;20054;-70
2022/09/03 08:01:11;;;;;;;4.72;2.70;;;17.10;68.50;;;15.69;94.17;95876.94;5005155;28;20048;-73
2022/09/03 08:03:37;;;;;;;;;;;17.40;68.20;;;15.77;94.39;95871.28;5005693;28;20030;-71
2022/09/03 08:06:05;;;;;;;5.28;2.60;;;17.50;67.60;;;15.84;92.88;95871.19;5001344;28;19948;-70
2022/09/03 08:08:31;;;;;;;5.20;2.40;;;17.60;67.30;;;15.97;92.94;95870.19;4999177;28;20030;-73
2022/09/03 08:11:13;;;;;;;4.35;2.50;;;17.80;67.00;;;16.10;92.81;95870.00;4985466;28;20042;-70
2022/09/03 08:13:43;;;;;;;4.50;2.80;;;18.00;66.40;;;16.23;92.24;95870.56;4971172;28;20089;-72
2022/09/03 08:16:13;;;;;;;5.95;3.00;;;18.10;65.60;;;16.37;91.14;95871.16;5002157;28;20091;-65
2022/09/03 08:18:39;;;;;;;8.30;3.80;;;18.30;65.20;;;16.49;90.05;95874.59;5002046;28;20046;-64
2022/09/03 08:21:23;;;;;;;7.15;3.08;;;18.40;63.70;;;16.60;88.21;95866.88;5004737;28;20574;-67
2022/09/03 08:23:51;;;;;;;5.45;2.75;;;18.50;63.30;;;16.67;88.81;95871.06;4995771;28;20537;-71
2022/09/03 08:26:17;;;;;;;4.93;2.22;;;18.60;63.80;;;16.81;88.72;95876.94;4966373;28;20451;-70
2022/09/03 08:28:43;;;;;;;3.72;2.50;;;18.80;63.50;;;17.00;88.92;95875.75;4996562;28;20041;-70
2022/09/03 08:31:18;;;;;;;4.13;2.10;;;19.10;63.50;;;17.15;87.90;95873.38;5004738;28;20104;-70
2022/09/03 08:33:46;;;;;;;5.20;2.30;;;19.20;61.80;;;17.33;86.27;95868.94;5005820;28;20061;-69
2022/09/03 08:36:17;;;;;;;3.95;2.63;;;19.50;60.90;;;17.49;84.82;95870.84;5013706;28;20247;-67
2022/09/03 08:38:45;;;;;;;5.97;2.70;;;19.70;60.30;;;17.63;85.21;95872.16;4985167;28;20250;-71
2022/09/03 08:41:36;;;;;;;3.90;2.47;;;19.90;59.50;;;17.72;82.05;95867.31;4984559;28;20045;-70
2022/09/03 08:44:46;;;;;;;5.03;2.42;;;19.80;58.90;;;17.85;83.16;95866.19;5002124;28;20394;-70
2022/09/03 08:47:36;;;;;;;4.40;2.05;;;20.00;59.30;;;18.00;82.38;95874.44;5005856;28;20117;-70
2022/09/03 08:50:12;;;;;;;2.65;2.03;;;20.20;58.80;;;18.19;82.40;95873.16;4992330;28;20046;-70
2022/09/03 08:52:41;;;;;;;4.82;2.58;;;20.60;58.50;;;18.51;81.79;95875.22;4986051;28;20513;-71
2022/09/03 08:55:54;;;;;;;3.20;2.25;;;21.10;57.30;;;19.03;80.17;95867.75;5006431;28;20091;-70
2022/09/03 08:58:24;;;;;;;5.47;1.80;;;21.70;56.70;;;19.52;80.92;95865.91;5001616;28;20069;-72
2022/09/03 09:01:10;;;;;;;3.13;1.88;;;22.40;54.60;;;20.16;75.76;95850.00;4975382;28;20062;-71
2022/09/03 09:03:46;;;;;;;5.45;2.70;;;23.10;52.80;;;20.73;72.90;95849.31;4986200;28;20042;-71
2022/09/03 09:07:02;;;;;;;9.68;5.43;;;23.50;51.00;;;21.39;72.96;95846.16;4990104;28;20113;-71
2022/09/03 09:09:33;;;;;;;6.53;2.53;;;24.40;51.00;;;21.99;72.32;95842.81;4984940;28;20037;-70
2022/09/03 09:12:45;;;;;;;3.03;2.08;;;25.10;48.90;;;22.36;67.29;95841.75;4996852;28;20064;-70
2022/09/03 09:15:41;;;;;;;3.75;2.15;;;25.20;47.20;;;22.53;65.82;95847.63;4997305;28;20033;-67
2022/09/03 09:18:19;;;;;;;4.18;2.00;;;25.20;46.30;;;22.70;66.87;95846.53;4992063;28;20084;-67
2022/09/03 09:20:51;;;;;;;4.25;2.03;;;25.50;46.50;;;22.87;66.59;95855.91;5007345;28;20029;-67
2022/09/03 09:23:36;;;;;;;4.25;1.90;;;25.50;46.50;;;22.97;63.69;95852.38;4972101;28;20034;-67
2022/09/03 09:26:06;;;;;;;3.03;1.70;;;25.70;45.80;;;23.02;64.69;95847.00;4992953;28;20042;-67
2022/09/03 09:28:36;;;;;;;3.13;1.92;;;25.70;45.40;;;23.18;64.47;95851.25;4995200;28;20042;-67
2022/09/03 09:31:03;;;;;;;3.28;1.80;;;26.00;45.80;;;23.57;65.04;95853.25;4983978;28;20046;-67
2022/09/03 09:33:33;;;;;;;2.53;1.55;;;26.60;44.80;;;24.04;63.96;95833.88;4991383;28;20077;-67
2022/09/03 09:36:07;;;;;;;4.63;2.00;;;27.20;44.00;;;24.52;60.05;95843.97;4990805;28;20604;-69
2022/09/03 09:38:35;;;;;;;5.32;1.73;;;27.40;41.80;;;24.95;60.75;95837.63;5003020;28;20057;-67
2022/09/03 09:41:11;;;;;;;3.42;1.77;;;28.20;41.20;;;25.38;57.83;95826.91;4997692;28;20054;-68
2022/09/03 09:43:38;;;;;;;3.20;1.95;;;28.70;41.50;;;25.61;59.45;95828.75;4969576;28;20030;-67
2022/09/03 09:46:13;;;;;;;2.95;1.73;;;28.60;40.40;;;25.75;55.93;95819.94;4978579;28;20053;-69
2022/09/03 09:48:53;;;;;;;5.47;1.92;;;28.60;40.20;;;25.71;54.71;95822.41;5004529;28;20054;-67
2022/09/03 09:51:21;;;;;;;4.68;1.70;;;28.30;40.50;;;25.56;57.47;95822.59;4985676;28;20026;-67
2022/09/03 09:53:47;;;;;;;2.42;1.60;;;27.90;41.20;;;25.44;57.48;95825.72;4985423;28;20039;-67
2022/09/03 09:56:23;;;;;;;2.92;1.80;;;27.70;41.70;;;25.38;55.23;95824.22;5006563;28;20800;-67
2022/09/03 09:58:51;;;;;;;4.22;2.10;;;27.80;41.90;;;25.34;57.51;95823.16;5000291;28;20125;-68
2022/09/03 10:01:24;;;;;;;2.97;1.67;;;27.60;42.40;;;25.44;56.33;95819.53;5014633;28;20058;-68
2022/09/03 10:03:57;;;;;;;3.67;1.90;;;28.20;42.30;;;25.59;56.01;95816.66;4988488;28;20403;-69
2022/09/03 10:09:22;;;;;;;5.10;2.25;;;28.40;42.70;;;25.74;56.51;95807.56;4986362;28;20037;-63
2022/09/03 10:12:30;;;;;;;2.58;1.80;;;28.30;42.30;;;25.89;55.84;95812.72;4986798;28;20049;-64
2022/09/03 10:15:16;;;;;;;2.63;1.92;;;28.80;41.60;;;26.38;54.38;95816.81;5009882;28;20041;-68
2022/09/03 10:17:56;;;;;;;3.33;1.50;;;29.80;39.10;;;26.62;53.01;95817.47;5003430;28;20053;-68
2022/09/03 10:20:36;;;;;;;3.05;1.60;;;29.60;39.40;;;26.67;51.91;95820.06;5004951;28;20382;-69
2022/09/03 10:23:14;;;;;;;2.13;1.50;;;29.30;39.20;;;26.64;51.89;95815.28;4989555;28;20041;-69
2022/09/03 10:26:06;;;;;;;1.70;1.30;;;29.30;39.40;;;26.70;53.18;95819.47;4982498;28;20038;-69
2022/09/03 10:28:38;;;;;;;3.10;1.58;;;29.40;40.30;;;26.60;53.39;95819.66;4978862;28;20135;-67
2022/09/03 10:31:44;;;;;;;2.95;1.60;;;28.80;40.00;;;26.28;52.54;95811.59;4967317;28;20422;-68
2022/09/03 10:34:57;;;;;;;2.72;1.77;;;28.30;41.40;;;26.01;52.80;95815.75;4983831;28;20413;-66
2022/09/03 10:38:00;;;;;;;3.00;1.60;;;28.00;41.80;;;25.88;52.61;95825.41;4996694;28;20052;-68
2022/09/03 10:40:39;;;;;;;3.50;1.48;;;27.70;42.40;;;25.69;53.63;95815.72;4989266;28;20042;-64
2022/09/03 10:43:34;;;;;;;2.25;1.33;;;27.60;42.70;;;25.51;54.47;95828.84;4971488;28;20526;-65
2022/09/03 10:46:09;;;;;;;2.38;1.60;;;27.20;43.90;;;25.28;56.31;95829.72;5020443;28;20033;-66
2022/09/03 10:49:09;;;;;;;2.10;1.42;;;27.00;45.20;;;25.02;55.37;95830.00;5002976;28;20037;-69
2022/09/03 10:51:41;;;;;;;4.85;1.85;;;26.60;44.70;;;24.87;57.00;95838.22;4992961;28;20060;-69